sensor_id;sensor_type;location;lat;lon;timestamp;P1;durP1;ratioP1;P2;durP2;ratioP2
44816;SDS011;30529;53.570;9.964;2023-07-29T00:01:23;6.57;;;4.27;;
44816;SDS011;30529;53.570;9.964;2023-07-29T00:03:49;6.23;;;4.50;;
44816;SDS011;30529;53.570;9.964;2023-07-29T00:06:15;6.80;;;4.40;;
44816;SDS011;30529;53.570;9.964;2023-07-29T00:08:41;7.50;;;4.37;;
44816;SDS011;30529;53.570;9.964;2023-07-29T00:11:07;5.57;;;4.63;;
44816;SDS011;30529;53.570;9.964;2023-07-29T00:13:33;8.30;;;5.20;;
44816;SDS011;30529;53.570;9.964;2023-07-29T00:15:59;7.23;;;5.40;;
44816;SDS011;30529;53.570;9.964;2023-07-29T00:18:25;7.23;;;5.00;;
44816;SDS011;30529;53.570;9.964;2023-07-29T00:20:51;6.43;;;5.27;;
44816;SDS011;30529;53.570;9.964;2023-07-29T00:23:17;7.70;;;5.67;;
44816;SDS011;30529;53.570;9.964;2023-07-29T00:25:44;7.17;;;5.07;;
44816;SDS011;30529;53.570;9.964;2023-07-29T00:28:11;7.80;;;5.13;;
44816;SDS011;30529;53.570;9.964;2023-07-29T00:30:38;6.57;;;4.70;;
44816;SDS011;30529;53.570;9.964;2023-07-29T00:33:04;8.33;;;4.80;;
44816;SDS011;30529;53.570;9.964;2023-07-29T00:35:30;6.47;;;4.97;;
44816;SDS011;30529;53.570;9.964;2023-07-29T00:37:56;6.53;;;4.77;;
44816;SDS011;30529;53.570;9.964;2023-07-29T00:40:22;6.17;;;4.43;;
44816;SDS011;30529;53.570;9.964;2023-07-29T00:42:48;5.87;;;4.50;;
44816;SDS011;30529;53.570;9.964;2023-07-29T00:45:16;7.10;;;4.67;;
44816;SDS011;30529;53.570;9.964;2023-07-29T00:47:42;5.90;;;4.20;;
44816;SDS011;30529;53.570;9.964;2023-07-29T00:50:09;5.63;;;4.20;;
44816;SDS011;30529;53.570;9.964;2023-07-29T00:52:36;6.10;;;4.63;;
44816;SDS011;30529;53.570;9.964;2023-07-29T00:55:02;8.60;;;4.83;;
44816;SDS011;30529;53.570;9.964;2023-07-29T00:57:30;6.60;;;4.50;;
44816;SDS011;30529;53.570;9.964;2023-07-29T00:59:56;7.53;;;4.07;;
44816;SDS011;30529;53.570;9.964;2023-07-29T01:02:22;5.97;;;4.03;;
44816;SDS011;30529;53.570;9.964;2023-07-29T01:04:55;6.00;;;4.27;;
44816;SDS011;30529;53.570;9.964;2023-07-29T01:13:14;5.00;;;3.63;;
44816;SDS011;30529;53.570;9.964;2023-07-29T01:18:31;5.67;;;4.20;;
44816;SDS011;30529;53.570;9.964;2023-07-29T01:21:04;7.87;;;5.10;;
44816;SDS011;30529;53.570;9.964;2023-07-29T01:23:33;9.57;;;7.37;;
44816;SDS011;30529;53.570;9.964;2023-07-29T01:26:00;11.03;;;6.37;;
44816;SDS011;30529;53.570;9.964;2023-07-29T01:28:27;7.30;;;5.10;;
44816;SDS011;30529;53.570;9.964;2023-07-29T01:30:57;7.60;;;5.73;;
44816;SDS011;30529;53.570;9.964;2023-07-29T01:33:42;6.63;;;4.97;;
44816;SDS011;30529;53.570;9.964;2023-07-29T01:36:18;8.10;;;5.30;;
44816;SDS011;30529;53.570;9.964;2023-07-29T01:38:48;4.83;;;4.33;;
44816;SDS011;30529;53.570;9.964;2023-07-29T01:41:16;5.57;;;4.70;;
44816;SDS011;30529;53.570;9.964;2023-07-29T01:43:43;6.83;;;5.17;;
44816;SDS011;30529;53.570;9.964;2023-07-29T01:46:15;5.57;;;4.40;;
44816;SDS011;30529;53.570;9.964;2023-07-29T01:48:41;6.67;;;4.77;;
44816;SDS011;30529;53.570;9.964;2023-07-29T01:51:08;11.83;;;6.60;;
44816;SDS011;30529;53.570;9.964;2023-07-29T01:53:36;8.37;;;6.07;;
44816;SDS011;30529;53.570;9.964;2023-07-29T01:56:02;9.50;;;6.33;;
44816;SDS011;30529;53.570;9.964;2023-07-29T01:58:28;11.50;;;8.80;;
44816;SDS011;30529;53.570;9.964;2023-07-29T02:00:57;9.50;;;6.77;;
44816;SDS011;30529;53.570;9.964;2023-07-29T02:03:23;6.67;;;5.30;;
44816;SDS011;30529;53.570;9.964;2023-07-29T02:05:49;6.53;;;5.07;;
44816;SDS011;30529;53.570;9.964;2023-07-29T02:08:15;7.10;;;5.13;;
44816;SDS011;30529;53.570;9.964;2023-07-29T02:10:41;5.27;;;4.77;;
44816;SDS011;30529;53.570;9.964;2023-07-29T02:13:11;7.10;;;5.23;;
44816;SDS011;30529;53.570;9.964;2023-07-29T02:15:37;5.80;;;4.80;;
44816;SDS011;30529;53.570;9.964;2023-07-29T02:18:03;4.60;;;4.20;;
44816;SDS011;30529;53.570;9.964;2023-07-29T02:20:29;6.17;;;5.33;;
44816;SDS011;30529;53.570;9.964;2023-07-29T02:22:55;6.93;;;5.10;;
44816;SDS011;30529;53.570;9.964;2023-07-29T02:25:21;6.00;;;5.10;;
44816;SDS011;30529;53.570;9.964;2023-07-29T02:27:47;5.43;;;4.83;;
44816;SDS011;30529;53.570;9.964;2023-07-29T02:30:13;6.03;;;4.87;;
44816;SDS011;30529;53.570;9.964;2023-07-29T02:32:39;5.43;;;4.60;;
44816;SDS011;30529;53.570;9.964;2023-07-29T02:35:05;6.33;;;5.50;;
44816;SDS011;30529;53.570;9.964;2023-07-29T02:37:32;6.73;;;5.63;;
44816;SDS011;30529;53.570;9.964;2023-07-29T02:39:58;6.50;;;5.27;;
44816;SDS011;30529;53.570;9.964;2023-07-29T02:42:24;6.33;;;5.53;;
44816;SDS011;30529;53.570;9.964;2023-07-29T02:44:50;6.90;;;5.83;;
44816;SDS011;30529;53.570;9.964;2023-07-29T02:47:16;7.07;;;4.90;;
44816;SDS011;30529;53.570;9.964;2023-07-29T02:49:42;6.30;;;5.33;;
44816;SDS011;30529;53.570;9.964;2023-07-29T02:52:08;7.77;;;6.00;;
44816;SDS011;30529;53.570;9.964;2023-07-29T02:54:34;6.50;;;5.80;;
44816;SDS011;30529;53.570;9.964;2023-07-29T02:57:00;6.33;;;5.50;;
44816;SDS011;30529;53.570;9.964;2023-07-29T02:59:27;7.13;;;6.10;;
44816;SDS011;30529;53.570;9.964;2023-07-29T03:01:53;6.10;;;5.50;;
44816;SDS011;30529;53.570;9.964;2023-07-29T03:04:19;7.83;;;5.67;;
44816;SDS011;30529;53.570;9.964;2023-07-29T03:06:45;8.07;;;5.40;;
44816;SDS011;30529;53.570;9.964;2023-07-29T03:09:13;6.23;;;5.33;;
44816;SDS011;30529;53.570;9.964;2023-07-29T03:11:39;6.93;;;5.23;;
44816;SDS011;30529;53.570;9.964;2023-07-29T03:14:05;5.43;;;4.93;;
44816;SDS011;30529;53.570;9.964;2023-07-29T03:16:31;7.03;;;6.20;;
44816;SDS011;30529;53.570;9.964;2023-07-29T03:18:58;8.13;;;5.27;;
44816;SDS011;30529;53.570;9.964;2023-07-29T03:21:25;6.13;;;5.53;;
44816;SDS011;30529;53.570;9.964;2023-07-29T03:23:51;7.77;;;5.70;;
44816;SDS011;30529;53.570;9.964;2023-07-29T03:26:17;7.63;;;6.17;;
44816;SDS011;30529;53.570;9.964;2023-07-29T03:28:43;6.80;;;5.57;;
44816;SDS011;30529;53.570;9.964;2023-07-29T03:31:10;5.73;;;5.13;;
44816;SDS011;30529;53.570;9.964;2023-07-29T03:33:36;6.40;;;5.80;;
44816;SDS011;30529;53.570;9.964;2023-07-29T03:36:03;7.20;;;6.50;;
44816;SDS011;30529;53.570;9.964;2023-07-29T03:38:29;6.30;;;5.70;;
44816;SDS011;30529;53.570;9.964;2023-07-29T03:40:56;7.43;;;6.07;;
44816;SDS011;30529;53.570;9.964;2023-07-29T03:43:22;7.03;;;6.13;;
44816;SDS011;30529;53.570;9.964;2023-07-29T03:45:48;6.90;;;6.23;;
44816;SDS011;30529;53.570;9.964;2023-07-29T03:48:15;8.87;;;6.73;;
44816;SDS011;30529;53.570;9.964;2023-07-29T03:50:41;8.77;;;5.87;;
44816;SDS011;30529;53.570;9.964;2023-07-29T03:53:07;8.93;;;6.63;;
44816;SDS011;30529;53.570;9.964;2023-07-29T03:55:35;9.30;;;6.73;;
44816;SDS011;30529;53.570;9.964;2023-07-29T03:58:01;7.60;;;6.80;;
44816;SDS011;30529;53.570;9.964;2023-07-29T04:00:27;8.23;;;7.30;;
44816;SDS011;30529;53.570;9.964;2023-07-29T04:02:53;7.83;;;6.87;;
44816;SDS011;30529;53.570;9.964;2023-07-29T04:05:19;8.00;;;6.77;;
44816;SDS011;30529;53.570;9.964;2023-07-29T04:07:45;10.47;;;7.20;;
44816;SDS011;30529;53.570;9.964;2023-07-29T04:10:12;6.90;;;6.23;;
44816;SDS011;30529;53.570;9.964;2023-07-29T04:12:38;10.43;;;8.13;;
44816;SDS011;30529;53.570;9.964;2023-07-29T04:15:04;13.33;;;10.03;;
44816;SDS011;30529;53.570;9.964;2023-07-29T04:17:31;13.33;;;11.20;;
44816;SDS011;30529;53.570;9.964;2023-07-29T04:19:57;13.47;;;11.27;;
44816;SDS011;30529;53.570;9.964;2023-07-29T04:22:23;13.73;;;11.50;;
44816;SDS011;30529;53.570;9.964;2023-07-29T04:24:49;13.53;;;11.50;;
44816;SDS011;30529;53.570;9.964;2023-07-29T04:27:15;14.97;;;12.67;;
44816;SDS011;30529;53.570;9.964;2023-07-29T04:29:41;17.33;;;13.00;;
44816;SDS011;30529;53.570;9.964;2023-07-29T04:32:07;19.73;;;13.97;;
44816;SDS011;30529;53.570;9.964;2023-07-29T04:34:33;20.60;;;16.63;;
44816;SDS011;30529;53.570;9.964;2023-07-29T04:36:59;19.60;;;15.23;;
44816;SDS011;30529;53.570;9.964;2023-07-29T04:39:25;22.27;;;16.10;;
44816;SDS011;30529;53.570;9.964;2023-07-29T04:41:52;20.93;;;14.97;;
44816;SDS011;30529;53.570;9.964;2023-07-29T04:44:18;18.23;;;14.87;;
44816;SDS011;30529;53.570;9.964;2023-07-29T04:46:44;21.40;;;15.37;;
44816;SDS011;30529;53.570;9.964;2023-07-29T04:49:10;18.47;;;15.17;;
44816;SDS011;30529;53.570;9.964;2023-07-29T04:51:36;19.83;;;14.93;;
44816;SDS011;30529;53.570;9.964;2023-07-29T04:54:02;18.53;;;15.10;;
44816;SDS011;30529;53.570;9.964;2023-07-29T04:56:28;18.83;;;14.90;;
44816;SDS011;30529;53.570;9.964;2023-07-29T04:58:54;18.93;;;15.33;;
44816;SDS011;30529;53.570;9.964;2023-07-29T05:01:20;17.73;;;15.50;;
44816;SDS011;30529;53.570;9.964;2023-07-29T05:03:46;24.07;;;16.20;;
44816;SDS011;30529;53.570;9.964;2023-07-29T05:06:13;20.50;;;15.47;;
44816;SDS011;30529;53.570;9.964;2023-07-29T05:08:39;20.97;;;15.80;;
44816;SDS011;30529;53.570;9.964;2023-07-29T05:11:05;22.37;;;16.03;;
44816;SDS011;30529;53.570;9.964;2023-07-29T05:13:31;17.77;;;15.30;;
44816;SDS011;30529;53.570;9.964;2023-07-29T05:15:57;18.60;;;14.73;;
44816;SDS011;30529;53.570;9.964;2023-07-29T05:18:23;18.60;;;15.63;;
44816;SDS011;30529;53.570;9.964;2023-07-29T05:20:49;16.90;;;14.83;;
44816;SDS011;30529;53.570;9.964;2023-07-29T05:23:16;16.73;;;14.40;;
44816;SDS011;30529;53.570;9.964;2023-07-29T05:25:42;18.23;;;15.00;;
44816;SDS011;30529;53.570;9.964;2023-07-29T05:28:08;18.00;;;14.30;;
44816;SDS011;30529;53.570;9.964;2023-07-29T05:30:34;15.90;;;14.20;;
44816;SDS011;30529;53.570;9.964;2023-07-29T05:33:05;16.60;;;14.43;;
44816;SDS011;30529;53.570;9.964;2023-07-29T05:35:34;16.77;;;13.97;;
44816;SDS011;30529;53.570;9.964;2023-07-29T05:38:00;18.33;;;14.93;;
44816;SDS011;30529;53.570;9.964;2023-07-29T05:40:26;18.80;;;14.87;;
44816;SDS011;30529;53.570;9.964;2023-07-29T05:42:52;18.20;;;13.93;;
44816;SDS011;30529;53.570;9.964;2023-07-29T05:45:18;16.60;;;13.67;;
44816;SDS011;30529;53.570;9.964;2023-07-29T05:47:44;14.63;;;13.00;;
44816;SDS011;30529;53.570;9.964;2023-07-29T05:50:10;18.63;;;14.63;;
44816;SDS011;30529;53.570;9.964;2023-07-29T05:52:36;15.37;;;13.77;;
44816;SDS011;30529;53.570;9.964;2023-07-29T05:55:02;17.23;;;13.57;;
44816;SDS011;30529;53.570;9.964;2023-07-29T05:57:28;16.03;;;12.73;;
44816;SDS011;30529;53.570;9.964;2023-07-29T05:59:54;14.93;;;13.27;;
44816;SDS011;30529;53.570;9.964;2023-07-29T06:02:20;14.30;;;12.80;;
44816;SDS011;30529;53.570;9.964;2023-07-29T06:04:47;16.33;;;14.43;;
44816;SDS011;30529;53.570;9.964;2023-07-29T06:07:13;17.33;;;14.00;;
44816;SDS011;30529;53.570;9.964;2023-07-29T06:09:39;16.03;;;14.10;;
44816;SDS011;30529;53.570;9.964;2023-07-29T06:12:05;16.07;;;14.07;;
44816;SDS011;30529;53.570;9.964;2023-07-29T06:14:32;16.33;;;13.57;;
44816;SDS011;30529;53.570;9.964;2023-07-29T06:16:58;16.60;;;14.43;;
44816;SDS011;30529;53.570;9.964;2023-07-29T06:19:24;15.60;;;14.00;;
44816;SDS011;30529;53.570;9.964;2023-07-29T06:21:50;15.40;;;13.80;;
44816;SDS011;30529;53.570;9.964;2023-07-29T06:24:16;18.90;;;13.33;;
44816;SDS011;30529;53.570;9.964;2023-07-29T06:26:42;17.73;;;14.33;;
44816;SDS011;30529;53.570;9.964;2023-07-29T06:29:10;16.30;;;13.10;;
44816;SDS011;30529;53.570;9.964;2023-07-29T06:31:36;14.40;;;12.60;;
44816;SDS011;30529;53.570;9.964;2023-07-29T06:34:02;14.57;;;12.57;;
44816;SDS011;30529;53.570;9.964;2023-07-29T06:36:28;16.50;;;12.93;;
44816;SDS011;30529;53.570;9.964;2023-07-29T06:38:54;15.93;;;13.13;;
44816;SDS011;30529;53.570;9.964;2023-07-29T06:41:20;17.90;;;14.80;;
44816;SDS011;30529;53.570;9.964;2023-07-29T06:43:46;14.77;;;12.77;;
44816;SDS011;30529;53.570;9.964;2023-07-29T06:46:12;15.70;;;13.63;;
44816;SDS011;30529;53.570;9.964;2023-07-29T06:48:38;14.97;;;12.47;;
44816;SDS011;30529;53.570;9.964;2023-07-29T06:51:04;15.87;;;13.57;;
44816;SDS011;30529;53.570;9.964;2023-07-29T06:53:30;17.30;;;13.73;;
44816;SDS011;30529;53.570;9.964;2023-07-29T06:55:56;14.70;;;13.20;;
44816;SDS011;30529;53.570;9.964;2023-07-29T06:58:22;15.23;;;12.93;;
44816;SDS011;30529;53.570;9.964;2023-07-29T07:00:48;15.27;;;12.90;;
44816;SDS011;30529;53.570;9.964;2023-07-29T07:03:14;16.60;;;13.87;;
44816;SDS011;30529;53.570;9.964;2023-07-29T07:05:40;15.87;;;13.53;;
44816;SDS011;30529;53.570;9.964;2023-07-29T07:08:06;16.47;;;12.93;;
44816;SDS011;30529;53.570;9.964;2023-07-29T07:10:32;14.30;;;12.80;;
44816;SDS011;30529;53.570;9.964;2023-07-29T07:12:59;22.13;;;13.73;;
44816;SDS011;30529;53.570;9.964;2023-07-29T07:15:25;17.30;;;14.30;;
44816;SDS011;30529;53.570;9.964;2023-07-29T07:17:51;17.07;;;13.97;;
44816;SDS011;30529;53.570;9.964;2023-07-29T07:20:17;19.73;;;14.43;;
44816;SDS011;30529;53.570;9.964;2023-07-29T07:22:43;14.13;;;12.63;;
44816;SDS011;30529;53.570;9.964;2023-07-29T07:25:09;16.43;;;13.67;;
44816;SDS011;30529;53.570;9.964;2023-07-29T07:27:36;15.47;;;12.53;;
44816;SDS011;30529;53.570;9.964;2023-07-29T07:30:03;14.97;;;12.67;;
44816;SDS011;30529;53.570;9.964;2023-07-29T07:32:29;18.03;;;14.33;;
44816;SDS011;30529;53.570;9.964;2023-07-29T07:34:55;19.27;;;13.87;;
44816;SDS011;30529;53.570;9.964;2023-07-29T07:37:21;18.73;;;15.20;;
44816;SDS011;30529;53.570;9.964;2023-07-29T07:39:47;17.73;;;13.60;;
44816;SDS011;30529;53.570;9.964;2023-07-29T07:42:13;16.30;;;13.50;;
44816;SDS011;30529;53.570;9.964;2023-07-29T07:44:39;19.77;;;13.53;;
44816;SDS011;30529;53.570;9.964;2023-07-29T07:47:05;16.13;;;13.63;;
44816;SDS011;30529;53.570;9.964;2023-07-29T07:49:31;18.87;;;13.97;;
44816;SDS011;30529;53.570;9.964;2023-07-29T07:51:57;17.07;;;13.80;;
44816;SDS011;30529;53.570;9.964;2023-07-29T07:54:23;14.83;;;12.80;;
44816;SDS011;30529;53.570;9.964;2023-07-29T07:56:49;16.33;;;13.50;;
44816;SDS011;30529;53.570;9.964;2023-07-29T07:59:15;16.87;;;12.00;;
44816;SDS011;30529;53.570;9.964;2023-07-29T08:01:41;18.43;;;11.83;;
44816;SDS011;30529;53.570;9.964;2023-07-29T08:04:07;14.77;;;11.77;;
44816;SDS011;30529;53.570;9.964;2023-07-29T08:06:33;13.47;;;11.87;;
44816;SDS011;30529;53.570;9.964;2023-07-29T08:09:01;14.13;;;11.90;;
44816;SDS011;30529;53.570;9.964;2023-07-29T08:11:27;15.13;;;11.60;;
44816;SDS011;30529;53.570;9.964;2023-07-29T08:13:53;14.83;;;11.13;;
44816;SDS011;30529;53.570;9.964;2023-07-29T08:16:19;12.27;;;10.93;;
44816;SDS011;30529;53.570;9.964;2023-07-29T08:18:45;14.50;;;11.40;;
44816;SDS011;30529;53.570;9.964;2023-07-29T08:21:11;13.70;;;10.63;;
44816;SDS011;30529;53.570;9.964;2023-07-29T08:23:37;12.63;;;11.10;;
44816;SDS011;30529;53.570;9.964;2023-07-29T08:26:04;11.67;;;10.47;;
44816;SDS011;30529;53.570;9.964;2023-07-29T08:28:31;12.87;;;10.47;;
44816;SDS011;30529;53.570;9.964;2023-07-29T08:30:59;16.00;;;11.33;;
44816;SDS011;30529;53.570;9.964;2023-07-29T08:33:25;12.70;;;10.60;;
44816;SDS011;30529;53.570;9.964;2023-07-29T08:35:52;13.97;;;10.63;;
44816;SDS011;30529;53.570;9.964;2023-07-29T08:38:18;11.10;;;9.83;;
44816;SDS011;30529;53.570;9.964;2023-07-29T08:40:46;11.37;;;10.23;;
44816;SDS011;30529;53.570;9.964;2023-07-29T08:43:19;12.43;;;11.13;;
44816;SDS011;30529;53.570;9.964;2023-07-29T08:45:51;13.40;;;10.90;;
44816;SDS011;30529;53.570;9.964;2023-07-29T08:48:19;11.57;;;10.27;;
44816;SDS011;30529;53.570;9.964;2023-07-29T08:50:54;13.17;;;11.00;;
44816;SDS011;30529;53.570;9.964;2023-07-29T08:53:21;14.57;;;10.60;;
44816;SDS011;30529;53.570;9.964;2023-07-29T08:55:47;14.27;;;10.47;;
44816;SDS011;30529;53.570;9.964;2023-07-29T08:58:14;13.57;;;11.23;;
44816;SDS011;30529;53.570;9.964;2023-07-29T09:00:41;12.77;;;10.97;;
44816;SDS011;30529;53.570;9.964;2023-07-29T09:03:07;13.50;;;11.23;;
44816;SDS011;30529;53.570;9.964;2023-07-29T09:05:34;12.63;;;11.27;;
44816;SDS011;30529;53.570;9.964;2023-07-29T09:08:00;14.97;;;11.30;;
44816;SDS011;30529;53.570;9.964;2023-07-29T09:10:28;14.03;;;12.00;;
44816;SDS011;30529;53.570;9.964;2023-07-29T09:12:54;13.57;;;11.40;;
44816;SDS011;30529;53.570;9.964;2023-07-29T09:15:27;11.70;;;10.60;;
44816;SDS011;30529;53.570;9.964;2023-07-29T09:17:58;13.90;;;10.80;;
44816;SDS011;30529;53.570;9.964;2023-07-29T09:20:25;13.47;;;11.13;;
44816;SDS011;30529;53.570;9.964;2023-07-29T09:22:57;14.20;;;11.10;;
44816;SDS011;30529;53.570;9.964;2023-07-29T09:25:28;12.90;;;10.50;;
44816;SDS011;30529;53.570;9.964;2023-07-29T09:28:01;12.67;;;10.70;;
44816;SDS011;30529;53.570;9.964;2023-07-29T09:30:32;11.70;;;10.43;;
44816;SDS011;30529;53.570;9.964;2023-07-29T09:32:58;12.63;;;11.33;;
44816;SDS011;30529;53.570;9.964;2023-07-29T09:35:26;13.27;;;10.40;;
44816;SDS011;30529;53.570;9.964;2023-07-29T09:37:54;14.90;;;11.03;;
44816;SDS011;30529;53.570;9.964;2023-07-29T09:40:20;12.20;;;9.87;;
44816;SDS011;30529;53.570;9.964;2023-07-29T09:42:52;10.93;;;8.33;;
44816;SDS011;30529;53.570;9.964;2023-07-29T09:45:24;52.43;;;25.53;;
44816;SDS011;30529;53.570;9.964;2023-07-29T09:47:52;12.73;;;9.03;;
44816;SDS011;30529;53.570;9.964;2023-07-29T09:50:23;12.10;;;8.50;;
44816;SDS011;30529;53.570;9.964;2023-07-29T09:52:51;9.23;;;8.27;;
44816;SDS011;30529;53.570;9.964;2023-07-29T09:55:19;8.57;;;7.67;;
44816;SDS011;30529;53.570;9.964;2023-07-29T09:57:58;8.33;;;7.13;;
44816;SDS011;30529;53.570;9.964;2023-07-29T10:00:27;7.50;;;6.80;;
44816;SDS011;30529;53.570;9.964;2023-07-29T10:02:54;9.10;;;6.73;;
44816;SDS011;30529;53.570;9.964;2023-07-29T10:05:22;8.63;;;5.83;;
44816;SDS011;30529;53.570;9.964;2023-07-29T10:07:51;7.60;;;6.37;;
44816;SDS011;30529;53.570;9.964;2023-07-29T10:10:17;7.90;;;5.57;;
44816;SDS011;30529;53.570;9.964;2023-07-29T10:12:43;7.07;;;5.60;;
44816;SDS011;30529;53.570;9.964;2023-07-29T10:15:10;6.83;;;5.13;;
44816;SDS011;30529;53.570;9.964;2023-07-29T10:17:36;5.53;;;5.00;;
44816;SDS011;30529;53.570;9.964;2023-07-29T10:20:04;5.30;;;4.33;;
44816;SDS011;30529;53.570;9.964;2023-07-29T10:22:39;7.10;;;4.57;;
44816;SDS011;30529;53.570;9.964;2023-07-29T10:25:07;6.00;;;4.67;;
44816;SDS011;30529;53.570;9.964;2023-07-29T10:30:44;6.07;;;4.20;;
44816;SDS011;30529;53.570;9.964;2023-07-29T10:33:10;4.10;;;3.70;;
44816;SDS011;30529;53.570;9.964;2023-07-29T10:35:36;4.80;;;3.47;;
44816;SDS011;30529;53.570;9.964;2023-07-29T10:38:03;6.70;;;4.03;;
44816;SDS011;30529;53.570;9.964;2023-07-29T10:40:46;6.03;;;4.50;;
44816;SDS011;30529;53.570;9.964;2023-07-29T10:43:19;4.23;;;3.80;;
44816;SDS011;30529;53.570;9.964;2023-07-29T10:45:50;4.23;;;3.83;;
44816;SDS011;30529;53.570;9.964;2023-07-29T10:54:31;4.17;;;3.50;;
44816;SDS011;30529;53.570;9.964;2023-07-29T10:56:50;3.83;;;3.33;;
44816;SDS011;30529;53.570;9.964;2023-07-29T11:01:45;3.40;;;3.10;;
44816;SDS011;30529;53.570;9.964;2023-07-29T11:17:40;5.60;;;3.20;;
44816;SDS011;30529;53.570;9.964;2023-07-29T11:20:09;5.20;;;2.20;;
44816;SDS011;30529;53.570;9.964;2023-07-29T11:22:37;2.67;;;2.33;;
44816;SDS011;30529;53.570;9.964;2023-07-29T11:25:05;6.23;;;1.97;;
44816;SDS011;30529;53.570;9.964;2023-07-29T11:27:33;2.13;;;1.93;;
44816;SDS011;30529;53.570;9.964;2023-07-29T11:30:00;6.43;;;1.80;;
44816;SDS011;30529;53.570;9.964;2023-07-29T11:32:27;3.30;;;2.27;;
44816;SDS011;30529;53.570;9.964;2023-07-29T11:34:53;3.03;;;2.00;;
44816;SDS011;30529;53.570;9.964;2023-07-29T11:37:19;1.70;;;1.50;;
44816;SDS011;30529;53.570;9.964;2023-07-29T11:39:48;3.00;;;2.33;;
44816;SDS011;30529;53.570;9.964;2023-07-29T11:42:14;3.60;;;2.23;;
44816;SDS011;30529;53.570;9.964;2023-07-29T11:44:40;5.00;;;2.23;;
44816;SDS011;30529;53.570;9.964;2023-07-29T11:47:07;3.43;;;2.60;;
44816;SDS011;30529;53.570;9.964;2023-07-29T11:49:34;3.10;;;2.80;;
44816;SDS011;30529;53.570;9.964;2023-07-29T11:52:02;3.03;;;2.73;;
44816;SDS011;30529;53.570;9.964;2023-07-29T11:54:29;3.20;;;2.53;;
44816;SDS011;30529;53.570;9.964;2023-07-29T11:56:55;3.17;;;2.60;;
44816;SDS011;30529;53.570;9.964;2023-07-29T11:59:22;2.53;;;2.07;;
44816;SDS011;30529;53.570;9.964;2023-07-29T12:01:48;4.77;;;2.70;;
44816;SDS011;30529;53.570;9.964;2023-07-29T12:04:14;2.47;;;1.93;;
44816;SDS011;30529;53.570;9.964;2023-07-29T12:06:41;4.63;;;2.23;;
44816;SDS011;30529;53.570;9.964;2023-07-29T12:09:07;2.47;;;2.13;;
44816;SDS011;30529;53.570;9.964;2023-07-29T12:11:34;2.47;;;2.17;;
44816;SDS011;30529;53.570;9.964;2023-07-29T12:14:01;3.53;;;1.93;;
44816;SDS011;30529;53.570;9.964;2023-07-29T12:16:27;3.70;;;2.00;;
44816;SDS011;30529;53.570;9.964;2023-07-29T12:19:00;4.83;;;2.37;;
44816;SDS011;30529;53.570;9.964;2023-07-29T12:21:26;2.80;;;2.20;;
44816;SDS011;30529;53.570;9.964;2023-07-29T12:23:52;3.40;;;2.07;;
44816;SDS011;30529;53.570;9.964;2023-07-29T12:26:18;2.73;;;2.33;;
44816;SDS011;30529;53.570;9.964;2023-07-29T12:28:45;2.63;;;1.87;;
44816;SDS011;30529;53.570;9.964;2023-07-29T12:31:13;2.87;;;2.47;;
44816;SDS011;30529;53.570;9.964;2023-07-29T12:33:39;3.57;;;2.20;;
44816;SDS011;30529;53.570;9.964;2023-07-29T12:36:07;5.57;;;2.03;;
44816;SDS011;30529;53.570;9.964;2023-07-29T12:38:33;2.87;;;2.33;;
44816;SDS011;30529;53.570;9.964;2023-07-29T12:40:59;2.97;;;1.73;;
44816;SDS011;30529;53.570;9.964;2023-07-29T12:43:25;3.83;;;1.50;;
44816;SDS011;30529;53.570;9.964;2023-07-29T12:45:51;2.67;;;1.80;;
44816;SDS011;30529;53.570;9.964;2023-07-29T12:48:18;2.20;;;1.70;;
44816;SDS011;30529;53.570;9.964;2023-07-29T12:50:44;2.73;;;1.43;;
44816;SDS011;30529;53.570;9.964;2023-07-29T12:53:10;1.87;;;1.60;;
44816;SDS011;30529;53.570;9.964;2023-07-29T12:55:36;1.67;;;1.43;;
44816;SDS011;30529;53.570;9.964;2023-07-29T12:58:02;2.67;;;1.40;;
44816;SDS011;30529;53.570;9.964;2023-07-29T13:00:29;3.77;;;1.60;;
44816;SDS011;30529;53.570;9.964;2023-07-29T13:02:55;3.73;;;1.63;;
44816;SDS011;30529;53.570;9.964;2023-07-29T13:05:22;1.77;;;1.60;;
44816;SDS011;30529;53.570;9.964;2023-07-29T13:07:47;1.97;;;1.50;;
44816;SDS011;30529;53.570;9.964;2023-07-29T13:10:14;1.47;;;1.20;;
44816;SDS011;30529;53.570;9.964;2023-07-29T13:12:40;2.07;;;1.33;;
44816;SDS011;30529;53.570;9.964;2023-07-29T13:15:06;3.37;;;1.93;;
44816;SDS011;30529;53.570;9.964;2023-07-29T13:17:33;1.90;;;1.37;;
44816;SDS011;30529;53.570;9.964;2023-07-29T13:19:59;2.23;;;1.77;;
44816;SDS011;30529;53.570;9.964;2023-07-29T13:22:25;2.57;;;1.90;;
44816;SDS011;30529;53.570;9.964;2023-07-29T13:24:51;1.70;;;1.50;;
44816;SDS011;30529;53.570;9.964;2023-07-29T13:27:17;4.50;;;1.40;;
44816;SDS011;30529;53.570;9.964;2023-07-29T13:29:43;2.80;;;1.67;;
44816;SDS011;30529;53.570;9.964;2023-07-29T13:32:09;3.17;;;1.90;;
44816;SDS011;30529;53.570;9.964;2023-07-29T13:34:35;3.60;;;1.40;;
44816;SDS011;30529;53.570;9.964;2023-07-29T13:37:01;5.50;;;3.43;;
44816;SDS011;30529;53.570;9.964;2023-07-29T13:39:27;2.33;;;1.53;;
44816;SDS011;30529;53.570;9.964;2023-07-29T13:41:54;2.70;;;1.90;;
44816;SDS011;30529;53.570;9.964;2023-07-29T13:44:20;4.60;;;1.47;;
44816;SDS011;30529;53.570;9.964;2023-07-29T13:46:46;2.57;;;2.03;;
44816;SDS011;30529;53.570;9.964;2023-07-29T13:49:12;1.53;;;1.30;;
44816;SDS011;30529;53.570;9.964;2023-07-29T13:51:38;2.10;;;1.40;;
44816;SDS011;30529;53.570;9.964;2023-07-29T13:54:04;3.00;;;1.20;;
44816;SDS011;30529;53.570;9.964;2023-07-29T13:56:30;1.80;;;1.30;;
44816;SDS011;30529;53.570;9.964;2023-07-29T13:58:56;1.87;;;1.30;;
44816;SDS011;30529;53.570;9.964;2023-07-29T14:01:22;4.53;;;1.60;;
44816;SDS011;30529;53.570;9.964;2023-07-29T14:03:49;2.47;;;1.43;;
44816;SDS011;30529;53.570;9.964;2023-07-29T14:06:15;2.83;;;1.90;;
44816;SDS011;30529;53.570;9.964;2023-07-29T14:08:41;3.40;;;1.60;;
44816;SDS011;30529;53.570;9.964;2023-07-29T14:11:07;7.20;;;1.67;;
44816;SDS011;30529;53.570;9.964;2023-07-29T14:13:33;3.23;;;1.40;;
44816;SDS011;30529;53.570;9.964;2023-07-29T14:16:03;4.20;;;1.57;;
44816;SDS011;30529;53.570;9.964;2023-07-29T14:18:29;2.67;;;1.50;;
44816;SDS011;30529;53.570;9.964;2023-07-29T14:20:56;2.93;;;1.50;;
44816;SDS011;30529;53.570;9.964;2023-07-29T14:23:22;2.50;;;1.37;;
44816;SDS011;30529;53.570;9.964;2023-07-29T14:25:48;4.40;;;1.53;;
44816;SDS011;30529;53.570;9.964;2023-07-29T14:28:14;4.70;;;1.40;;
44816;SDS011;30529;53.570;9.964;2023-07-29T14:30:40;4.00;;;1.60;;
44816;SDS011;30529;53.570;9.964;2023-07-29T14:33:06;2.23;;;1.37;;
44816;SDS011;30529;53.570;9.964;2023-07-29T14:35:32;2.73;;;1.53;;
44816;SDS011;30529;53.570;9.964;2023-07-29T14:37:58;2.77;;;1.50;;
44816;SDS011;30529;53.570;9.964;2023-07-29T14:40:24;2.53;;;1.70;;
44816;SDS011;30529;53.570;9.964;2023-07-29T14:42:50;4.77;;;1.47;;
44816;SDS011;30529;53.570;9.964;2023-07-29T14:45:17;3.10;;;1.20;;
44816;SDS011;30529;53.570;9.964;2023-07-29T14:47:43;2.53;;;1.23;;
44816;SDS011;30529;53.570;9.964;2023-07-29T14:50:09;2.27;;;1.13;;
44816;SDS011;30529;53.570;9.964;2023-07-29T14:52:35;2.70;;;1.63;;
44816;SDS011;30529;53.570;9.964;2023-07-29T14:55:01;2.70;;;1.30;;
44816;SDS011;30529;53.570;9.964;2023-07-29T14:57:27;1.83;;;1.50;;
44816;SDS011;30529;53.570;9.964;2023-07-29T14:59:53;3.77;;;1.50;;
44816;SDS011;30529;53.570;9.964;2023-07-29T15:02:19;2.40;;;1.43;;
44816;SDS011;30529;53.570;9.964;2023-07-29T15:04:45;3.23;;;1.67;;
44816;SDS011;30529;53.570;9.964;2023-07-29T15:07:11;2.60;;;1.20;;
44816;SDS011;30529;53.570;9.964;2023-07-29T15:09:37;2.83;;;1.90;;